sensor_id;sensor_type;location;lat;lon;timestamp;temperature;humidity
65652;SHT30;52350;51.546;7.002;2022-07-06T00:01:09;15.00;69.16
65652;SHT30;52350;51.546;7.002;2022-07-06T00:03:35;15.03;68.57
65652;SHT30;52350;51.546;7.002;2022-07-06T00:06:00;15.03;68.88
65652;SHT30;52350;51.546;7.002;2022-07-06T00:08:26;14.97;68.85
65652;SHT30;52350;51.546;7.002;2022-07-06T00:10:51;14.92;68.50
65652;SHT30;52350;51.546;7.002;2022-07-06T00:13:17;14.99;68.64
65652;SHT30;52350;51.546;7.002;2022-07-06T00:15:42;14.93;68.69
65652;SHT30;52350;51.546;7.002;2022-07-06T00:18:08;14.89;68.79
65652;SHT30;52350;51.546;7.002;2022-07-06T00:20:33;14.92;68.24
65652;SHT30;52350;51.546;7.002;2022-07-06T00:22:59;14.89;68.87
65652;SHT30;52350;51.546;7.002;2022-07-06T00:25:24;14.83;69.10
65652;SHT30;52350;51.546;7.002;2022-07-06T00:27:50;14.79;69.55
65652;SHT30;52350;51.546;7.002;2022-07-06T00:30:15;14.85;69.20
65652;SHT30;52350;51.546;7.002;2022-07-06T00:32:41;14.79;69.67
65652;SHT30;52350;51.546;7.002;2022-07-06T00:35:06;14.82;69.43
65652;SHT30;52350;51.546;7.002;2022-07-06T00:37:32;14.83;69.61
65652;SHT30;52350;51.546;7.002;2022-07-06T00:39:57;14.79;69.27
65652;SHT30;52350;51.546;7.002;2022-07-06T00:42:23;14.87;68.83
65652;SHT30;52350;51.546;7.002;2022-07-06T00:44:49;14.86;69.14
65652;SHT30;52350;51.546;7.002;2022-07-06T00:47:15;14.79;69.57
65652;SHT30;52350;51.546;7.002;2022-07-06T00:49:40;14.78;69.76
65652;SHT30;52350;51.546;7.002;2022-07-06T00:52:24;14.83;69.60
65652;SHT30;52350;51.546;7.002;2022-07-06T00:54:50;14.80;69.57
65652;SHT30;52350;51.546;7.002;2022-07-06T00:57:17;14.85;69.39
65652;SHT30;52350;51.546;7.002;2022-07-06T00:59:43;14.78;69.76
65652;SHT30;52350;51.546;7.002;2022-07-06T01:02:08;14.76;69.99
65652;SHT30;52350;51.546;7.002;2022-07-06T01:04:34;14.75;69.60
65652;SHT30;52350;51.546;7.002;2022-07-06T01:07:00;14.73;69.80
65652;SHT30;52350;51.546;7.002;2022-07-06T01:09:25;14.73;69.59
65652;SHT30;52350;51.546;7.002;2022-07-06T01:11:52;14.75;69.83
65652;SHT30;52350;51.546;7.002;2022-07-06T01:14:18;14.69;70.21
65652;SHT30;52350;51.546;7.002;2022-07-06T01:16:45;14.71;70.42
65652;SHT30;52350;51.546;7.002;2022-07-06T01:19:10;14.71;70.81
65652;SHT30;52350;51.546;7.002;2022-07-06T01:21:39;14.69;70.35
65652;SHT30;52350;51.546;7.002;2022-07-06T01:24:05;14.73;70.41
65652;SHT30;52350;51.546;7.002;2022-07-06T01:26:30;14.68;70.24
65652;SHT30;52350;51.546;7.002;2022-07-06T01:28:56;14.59;70.79
65652;SHT30;52350;51.546;7.002;2022-07-06T01:31:23;14.64;70.83
65652;SHT30;52350;51.546;7.002;2022-07-06T01:33:50;14.58;71.33
65652;SHT30;52350;51.546;7.002;2022-07-06T01:36:17;14.41;71.65
65652;SHT30;52350;51.546;7.002;2022-07-06T01:38:44;14.40;71.73
65652;SHT30;52350;51.546;7.002;2022-07-06T01:41:14;14.34;71.92
65652;SHT30;52350;51.546;7.002;2022-07-06T01:43:39;14.31;72.31
65652;SHT30;52350;51.546;7.002;2022-07-06T01:46:05;14.38;71.98
65652;SHT30;52350;51.546;7.002;2022-07-06T01:48:31;14.45;71.52
65652;SHT30;52350;51.546;7.002;2022-07-06T01:50:56;14.31;71.71
65652;SHT30;52350;51.546;7.002;2022-07-06T01:53:22;14.27;72.33
65652;SHT30;52350;51.546;7.002;2022-07-06T01:55:47;14.23;72.47
65652;SHT30;52350;51.546;7.002;2022-07-06T01:58:12;14.17;72.72
65652;SHT30;52350;51.546;7.002;2022-07-06T02:00:38;14.17;72.67
65652;SHT30;52350;51.546;7.002;2022-07-06T02:03:03;14.13;72.74
65652;SHT30;52350;51.546;7.002;2022-07-06T02:05:29;14.13;72.92
65652;SHT30;52350;51.546;7.002;2022-07-06T02:07:54;14.10;73.06
65652;SHT30;52350;51.546;7.002;2022-07-06T02:10:19;14.12;72.83
65652;SHT30;52350;51.546;7.002;2022-07-06T02:12:45;14.09;72.90
65652;SHT30;52350;51.546;7.002;2022-07-06T02:15:11;14.02;72.99
65652;SHT30;52350;51.546;7.002;2022-07-06T02:17:37;13.95;73.15
65652;SHT30;52350;51.546;7.002;2022-07-06T02:20:03;14.07;73.02
65652;SHT30;52350;51.546;7.002;2022-07-06T02:22:29;13.97;73.05
65652;SHT30;52350;51.546;7.002;2022-07-06T02:24:55;13.97;72.98
65652;SHT30;52350;51.546;7.002;2022-07-06T02:27:20;13.95;73.26
65652;SHT30;52350;51.546;7.002;2022-07-06T02:29:45;13.79;74.03
65652;SHT30;52350;51.546;7.002;2022-07-06T02:32:11;13.71;74.31
65652;SHT30;52350;51.546;7.002;2022-07-06T02:34:36;13.75;74.24
65652;SHT30;52350;51.546;7.002;2022-07-06T02:37:02;13.62;74.69
65652;SHT30;52350;51.546;7.002;2022-07-06T02:39:27;13.63;74.77
65652;SHT30;52350;51.546;7.002;2022-07-06T02:41:53;13.51;74.98
65652;SHT30;52350;51.546;7.002;2022-07-06T02:44:18;13.45;75.31
65652;SHT30;52350;51.546;7.002;2022-07-06T02:46:43;13.44;75.29
65652;SHT30;52350;51.546;7.002;2022-07-06T02:49:09;13.38;75.51
65652;SHT30;52350;51.546;7.002;2022-07-06T02:51:34;13.50;75.20
65652;SHT30;52350;51.546;7.002;2022-07-06T02:54:00;13.33;75.69
65652;SHT30;52350;51.546;7.002;2022-07-06T02:56:25;13.43;75.45
65652;SHT30;52350;51.546;7.002;2022-07-06T02:58:50;13.35;75.68
65652;SHT30;52350;51.546;7.002;2022-07-06T03:01:16;13.28;75.93
65652;SHT30;52350;51.546;7.002;2022-07-06T03:03:41;13.18;76.35
65652;SHT30;52350;51.546;7.002;2022-07-06T03:06:07;13.13;76.69
65652;SHT30;52350;51.546;7.002;2022-07-06T03:08:32;13.16;76.91
65652;SHT30;52350;51.546;7.002;2022-07-06T03:10:59;13.09;77.05
65652;SHT30;52350;51.546;7.002;2022-07-06T03:13:25;13.14;76.71
65652;SHT30;52350;51.546;7.002;2022-07-06T03:15:51;13.14;76.87
65652;SHT30;52350;51.546;7.002;2022-07-06T03:18:17;13.10;76.88
65652;SHT30;52350;51.546;7.002;2022-07-06T03:20:42;13.10;76.93
65652;SHT30;52350;51.546;7.002;2022-07-06T03:23:08;13.13;77.15
65652;SHT30;52350;51.546;7.002;2022-07-06T03:25:33;13.09;77.37
65652;SHT30;52350;51.546;7.002;2022-07-06T03:27:58;13.18;77.04
65652;SHT30;52350;51.546;7.002;2022-07-06T03:30:24;13.23;76.70
65652;SHT30;52350;51.546;7.002;2022-07-06T03:32:49;13.17;77.15
65652;SHT30;52350;51.546;7.002;2022-07-06T03:35:15;13.28;76.81
65652;SHT30;52350;51.546;7.002;2022-07-06T03:37:40;13.23;76.98
65652;SHT30;52350;51.546;7.002;2022-07-06T03:40:06;13.37;76.65
65652;SHT30;52350;51.546;7.002;2022-07-06T03:42:32;13.37;76.61
65652;SHT30;52350;51.546;7.002;2022-07-06T03:44:57;13.43;76.73
65652;SHT30;52350;51.546;7.002;2022-07-06T03:47:23;13.45;76.57
65652;SHT30;52350;51.546;7.002;2022-07-06T03:49:48;13.41;76.89
65652;SHT30;52350;51.546;7.002;2022-07-06T03:52:14;13.48;76.86
65652;SHT30;52350;51.546;7.002;2022-07-06T03:54:39;13.65;76.24
65652;SHT30;52350;51.546;7.002;2022-07-06T03:57:04;13.61;76.55
65652;SHT30;52350;51.546;7.002;2022-07-06T03:59:30;13.63;76.65
65652;SHT30;52350;51.546;7.002;2022-07-06T04:01:55;13.65;76.60
65652;SHT30;52350;51.546;7.002;2022-07-06T04:04:21;13.66;76.79
65652;SHT30;52350;51.546;7.002;2022-07-06T04:06:46;13.73;76.70
65652;SHT30;52350;51.546;7.002;2022-07-06T04:09:12;13.85;76.20
65652;SHT30;52350;51.546;7.002;2022-07-06T04:11:37;13.96;75.95
65652;SHT30;52350;51.546;7.002;2022-07-06T04:14:02;13.99;75.51
65652;SHT30;52350;51.546;7.002;2022-07-06T04:16:28;14.07;75.39
65652;SHT30;52350;51.546;7.002;2022-07-06T04:18:53;14.16;75.30
65652;SHT30;52350;51.546;7.002;2022-07-06T04:21:19;14.23;74.82
65652;SHT30;52350;51.546;7.002;2022-07-06T04:23:44;14.25;74.75
65652;SHT30;52350;51.546;7.002;2022-07-06T04:26:10;14.23;75.02
65652;SHT30;52350;51.546;7.002;2022-07-06T04:28:35;14.33;74.72
65652;SHT30;52350;51.546;7.002;2022-07-06T04:31:01;14.40;74.66
65652;SHT30;52350;51.546;7.002;2022-07-06T04:33:26;14.54;74.29
65652;SHT30;52350;51.546;7.002;2022-07-06T04:35:52;14.55;74.37
65652;SHT30;52350;51.546;7.002;2022-07-06T04:38:17;14.65;74.15
65652;SHT30;52350;51.546;7.002;2022-07-06T04:40:43;14.68;73.92
65652;SHT30;52350;51.546;7.002;2022-07-06T04:43:11;14.69;74.09
65652;SHT30;52350;51.546;7.002;2022-07-06T04:45:37;14.64;74.00
65652;SHT30;52350;51.546;7.002;2022-07-06T04:48:02;14.67;74.00
65652;SHT30;52350;51.546;7.002;2022-07-06T04:50:28;14.65;74.42
65652;SHT30;52350;51.546;7.002;2022-07-06T04:52:54;14.68;73.65
65652;SHT30;52350;51.546;7.002;2022-07-06T04:55:19;14.67;74.09
65652;SHT30;52350;51.546;7.002;2022-07-06T04:57:45;14.67;74.17
65652;SHT30;52350;51.546;7.002;2022-07-06T05:00:10;14.72;74.15
65652;SHT30;52350;51.546;7.002;2022-07-06T05:02:36;14.85;73.42
65652;SHT30;52350;51.546;7.002;2022-07-06T05:05:02;14.85;74.02
65652;SHT30;52350;51.546;7.002;2022-07-06T05:07:28;14.92;73.51
65652;SHT30;52350;51.546;7.002;2022-07-06T05:09:54;14.96;72.60
65652;SHT30;52350;51.546;7.002;2022-07-06T05:12:20;14.90;73.15
65652;SHT30;52350;51.546;7.002;2022-07-06T05:14:45;14.89;73.62
65652;SHT30;52350;51.546;7.002;2022-07-06T05:17:11;14.85;74.01
65652;SHT30;52350;51.546;7.002;2022-07-06T05:19:36;14.93;74.09
65652;SHT30;52350;51.546;7.002;2022-07-06T05:22:02;14.95;74.22
65652;SHT30;52350;51.546;7.002;2022-07-06T05:24:27;15.03;73.98
65652;SHT30;52350;51.546;7.002;2022-07-06T05:26:53;15.23;73.22
65652;SHT30;52350;51.546;7.002;2022-07-06T05:29:18;15.20;72.64
65652;SHT30;52350;51.546;7.002;2022-07-06T05:31:44;15.34;72.48
65652;SHT30;52350;51.546;7.002;2022-07-06T05:34:09;15.38;72.78
65652;SHT30;52350;51.546;7.002;2022-07-06T05:36:35;15.49;72.37
65652;SHT30;52350;51.546;7.002;2022-07-06T05:39:00;15.55;72.10
65652;SHT30;52350;51.546;7.002;2022-07-06T05:41:25;15.54;72.03
65652;SHT30;52350;51.546;7.002;2022-07-06T05:43:51;15.57;72.26
65652;SHT30;52350;51.546;7.002;2022-07-06T05:46:16;15.63;71.65
65652;SHT30;52350;51.546;7.002;2022-07-06T05:48:42;15.63;72.47
65652;SHT30;52350;51.546;7.002;2022-07-06T05:51:26;15.70;72.20
65652;SHT30;52350;51.546;7.002;2022-07-06T05:53:51;15.82;71.92
65652;SHT30;52350;51.546;7.002;2022-07-06T05:56:17;15.97;71.68
65652;SHT30;52350;51.546;7.002;2022-07-06T05:58:42;16.09;71.61
65652;SHT30;52350;51.546;7.002;2022-07-06T06:01:07;16.21;71.06
65652;SHT30;52350;51.546;7.002;2022-07-06T06:03:34;16.30;71.06
65652;SHT30;52350;51.546;7.002;2022-07-06T06:05:59;16.41;70.60
65652;SHT30;52350;51.546;7.002;2022-07-06T06:08:25;16.52;69.21
65652;SHT30;52350;51.546;7.002;2022-07-06T06:10:51;16.54;69.45
65652;SHT30;52350;51.546;7.002;2022-07-06T06:13:17;16.59;70.07
65652;SHT30;52350;51.546;7.002;2022-07-06T06:15:42;16.62;69.54
65652;SHT30;52350;51.546;7.002;2022-07-06T06:18:08;16.68;69.38
65652;SHT30;52350;51.546;7.002;2022-07-06T06:20:33;16.75;68.74
65652;SHT30;52350;51.546;7.002;2022-07-06T06:22:59;16.75;69.39
65652;SHT30;52350;51.546;7.002;2022-07-06T06:25:32;16.83;67.42
65652;SHT30;52350;51.546;7.002;2022-07-06T06:28:00;16.84;68.26
65652;SHT30;52350;51.546;7.002;2022-07-06T06:30:26;16.82;67.95
65652;SHT30;52350;51.546;7.002;2022-07-06T06:33:04;16.83;67.63
65652;SHT30;52350;51.546;7.002;2022-07-06T06:35:34;16.93;67.98
65652;SHT30;52350;51.546;7.002;2022-07-06T06:38:00;17.02;67.87
65652;SHT30;52350;51.546;7.002;2022-07-06T06:40:25;17.04;67.16
65652;SHT30;52350;51.546;7.002;2022-07-06T06:42:50;17.04;66.83
65652;SHT30;52350;51.546;7.002;2022-07-06T06:45:16;17.06;66.60
65652;SHT30;52350;51.546;7.002;2022-07-06T06:47:41;17.06;67.43
65652;SHT30;52350;51.546;7.002;2022-07-06T06:50:07;17.23;67.26
65652;SHT30;52350;51.546;7.002;2022-07-06T06:52:32;17.31;67.12
65652;SHT30;52350;51.546;7.002;2022-07-06T06:54:58;17.35;66.48
65652;SHT30;52350;51.546;7.002;2022-07-06T06:57:24;17.39;67.37
65652;SHT30;52350;51.546;7.002;2022-07-06T06:59:50;17.54;67.14
65652;SHT30;52350;51.546;7.002;2022-07-06T07:02:15;17.56;65.89
65652;SHT30;52350;51.546;7.002;2022-07-06T07:04:41;17.59;65.76
65652;SHT30;52350;51.546;7.002;2022-07-06T07:07:06;17.68;64.53
65652;SHT30;52350;51.546;7.002;2022-07-06T07:09:32;17.65;64.08
65652;SHT30;52350;51.546;7.002;2022-07-06T07:11:57;17.72;64.37
65652;SHT30;52350;51.546;7.002;2022-07-06T07:14:23;17.82;64.42
65652;SHT30;52350;51.546;7.002;2022-07-06T07:16:48;17.93;64.28
65652;SHT30;52350;51.546;7.002;2022-07-06T07:19:14;18.03;63.74
65652;SHT30;52350;51.546;7.002;2022-07-06T07:21:39;18.16;63.47
65652;SHT30;52350;51.546;7.002;2022-07-06T07:24:05;18.31;62.97
65652;SHT30;52350;51.546;7.002;2022-07-06T07:26:32;18.49;62.35
65652;SHT30;52350;51.546;7.002;2022-07-06T07:28:57;18.56;62.10
65652;SHT30;52350;51.546;7.002;2022-07-06T07:31:23;18.62;61.35
65652;SHT30;52350;51.546;7.002;2022-07-06T07:33:48;18.75;59.97
65652;SHT30;52350;51.546;7.002;2022-07-06T07:36:14;18.86;60.34
65652;SHT30;52350;51.546;7.002;2022-07-06T07:38:39;18.90;59.49
65652;SHT30;52350;51.546;7.002;2022-07-06T07:41:04;19.11;57.29
65652;SHT30;52350;51.546;7.002;2022-07-06T07:43:31;19.11;58.86
65652;SHT30;52350;51.546;7.002;2022-07-06T07:45:56;19.18;58.25
65652;SHT30;52350;51.546;7.002;2022-07-06T07:48:22;19.38;59.03
65652;SHT30;52350;51.546;7.002;2022-07-06T07:50:47;19.62;58.61
65652;SHT30;52350;51.546;7.002;2022-07-06T07:53:13;20.07;56.41
65652;SHT30;52350;51.546;7.002;2022-07-06T07:55:38;20.34;56.19
65652;SHT30;52350;51.546;7.002;2022-07-06T07:58:03;20.31;55.05
65652;SHT30;52350;51.546;7.002;2022-07-06T08:00:29;20.27;52.87
65652;SHT30;52350;51.546;7.002;2022-07-06T08:02:54;20.00;55.54
65652;SHT30;52350;51.546;7.002;2022-07-06T08:05:20;19.86;55.59
65652;SHT30;52350;51.546;7.002;2022-07-06T08:07:46;19.82;56.10
65652;SHT30;52350;51.546;7.002;2022-07-06T08:10:11;19.87;55.59
65652;SHT30;52350;51.546;7.002;2022-07-06T08:12:37;19.97;54.60
65652;SHT30;52350;51.546;7.002;2022-07-06T08:15:03;20.04;53.95
65652;SHT30;52350;51.546;7.002;2022-07-06T08:17:29;20.09;52.86
65652;SHT30;52350;51.546;7.002;2022-07-06T08:19:55;20.14;52.58
65652;SHT30;52350;51.546;7.002;2022-07-06T08:22:20;20.14;51.86
65652;SHT30;52350;51.546;7.002;2022-07-06T08:24:46;20.18;54.45
65652;SHT30;52350;51.546;7.002;2022-07-06T08:27:11;20.25;53.55
65652;SHT30;52350;51.546;7.002;2022-07-06T08:29:36;20.25;53.06
65652;SHT30;52350;51.546;7.002;2022-07-06T08:32:02;20.27;53.06
65652;SHT30;52350;51.546;7.002;2022-07-06T08:34:28;20.21;53.82
65652;SHT30;52350;51.546;7.002;2022-07-06T08:36:53;20.06;54.41
65652;SHT30;52350;51.546;7.002;2022-07-06T08:39:18;19.87;55.38
65652;SHT30;52350;51.546;7.002;2022-07-06T08:41:44;19.76;56.08
65652;SHT30;52350;51.546;7.002;2022-07-06T08:44:13;19.68;55.88
65652;SHT30;52350;51.546;7.002;2022-07-06T08:46:42;19.61;55.66
65652;SHT30;52350;51.546;7.002;2022-07-06T08:49:08;19.65;56.03
65652;SHT30;52350;51.546;7.002;2022-07-06T08:51:37;20.00;53.74
65652;SHT30;52350;51.546;7.002;2022-07-06T08:54:03;20.18;52.47
65652;SHT30;52350;51.546;7.002;2022-07-06T08:56:29;20.14;52.42
65652;SHT30;52350;51.546;7.002;2022-07-06T08:58:55;20.00;53.26
65652;SHT30;52350;51.546;7.002;2022-07-06T09:01:21;19.90;52.28
65652;SHT30;52350;51.546;7.002;2022-07-06T09:03:48;19.85;52.62
65652;SHT30;52350;51.546;7.002;2022-07-06T09:06:16;19.72;52.89
65652;SHT30;52350;51.546;7.002;2022-07-06T09:08:44;19.59;52.85
65652;SHT30;52350;51.546;7.002;2022-07-06T09:11:11;19.47;52.86
65652;SHT30;52350;51.546;7.002;2022-07-06T09:13:37;19.38;54.10
65652;SHT30;52350;51.546;7.002;2022-07-06T09:16:12;19.31;52.29
65652;SHT30;52350;51.546;7.002;2022-07-06T09:18:41;19.23;53.49
65652;SHT30;52350;51.546;7.002;2022-07-06T09:21:09;19.17;55.11
65652;SHT30;52350;51.546;7.002;2022-07-06T09:23:35;19.13;56.71
65652;SHT30;52350;51.546;7.002;2022-07-06T09:26:02;19.13;55.50
65652;SHT30;52350;51.546;7.002;2022-07-06T09:28:43;19.23;56.28
65652;SHT30;52350;51.546;7.002;2022-07-06T09:31:09;19.59;54.77
65652;SHT30;52350;51.546;7.002;2022-07-06T09:33:35;20.16;53.57
65652;SHT30;52350;51.546;7.002;2022-07-06T09:36:01;20.56;52.24
65652;SHT30;52350;51.546;7.002;2022-07-06T09:38:27;20.69;52.71
65652;SHT30;52350;51.546;7.002;2022-07-06T09:40:53;20.71;51.07
65652;SHT30;52350;51.546;7.002;2022-07-06T09:43:19;20.38;50.91
65652;SHT30;52350;51.546;7.002;2022-07-06T09:45:51;20.17;51.15
65652;SHT30;52350;51.546;7.002;2022-07-06T09:50:51;19.76;52.31
65652;SHT30;52350;51.546;7.002;2022-07-06T09:53:19;19.70;53.00
65652;SHT30;52350;51.546;7.002;2022-07-06T09:55:50;19.59;53.91
65652;SHT30;52350;51.546;7.002;2022-07-06T09:58:18;19.62;54.54
65652;SHT30;52350;51.546;7.002;2022-07-06T10:00:46;19.90;54.62
65652;SHT30;52350;51.546;7.002;2022-07-06T10:03:12;20.18;54.56
65652;SHT30;52350;51.546;7.002;2022-07-06T10:05:42;20.83;54.71
65652;SHT30;52350;51.546;7.002;2022-07-06T10:08:09;21.56;49.47
65652;SHT30;52350;51.546;7.002;2022-07-06T10:10:35;21.67;47.34
65652;SHT30;52350;51.546;7.002;2022-07-06T10:13:02;21.59;49.53
65652;SHT30;52350;51.546;7.002;2022-07-06T10:15:31;21.90;48.10
65652;SHT30;52350;51.546;7.002;2022-07-06T10:18:02;22.13;48.47
65652;SHT30;52350;51.546;7.002;2022-07-06T10:20:30;22.14;44.01
65652;SHT30;52350;51.546;7.002;2022-07-06T10:22:58;21.97;46.29
65652;SHT30;52350;51.546;7.002;2022-07-06T10:25:25;21.92;44.50
65652;SHT30;52350;51.546;7.002;2022-07-06T10:27:50;21.66;44.22
65652;SHT30;52350;51.546;7.002;2022-07-06T10:30:17;21.23;45.69
65652;SHT30;52350;51.546;7.002;2022-07-06T10:32:43;21.23;48.79
65652;SHT30;52350;51.546;7.002;2022-07-06T10:35:10;21.34;48.78
65652;SHT30;52350;51.546;7.002;2022-07-06T10:37:37;21.63;48.93
65652;SHT30;52350;51.546;7.002;2022-07-06T10:40:03;22.25;46.99
65652;SHT30;52350;51.546;7.002;2022-07-06T10:42:49;22.69;46.47
65652;SHT30;52350;51.546;7.002;2022-07-06T10:45:49;22.99;43.08
65652;SHT30;52350;51.546;7.002;2022-07-06T10:48:18;23.44;43.90
65652;SHT30;52350;51.546;7.002;2022-07-06T10:50:52;23.76;41.72
65652;SHT30;52350;51.546;7.002;2022-07-06T10:53:26;23.61;41.19
65652;SHT30;52350;51.546;7.002;2022-07-06T10:55:58;23.54;42.74
65652;SHT30;52350;51.546;7.002;2022-07-06T11:01:18;22.79;45.02
65652;SHT30;52350;51.546;7.002;2022-07-06T11:03:47;22.63;44.64
65652;SHT30;52350;51.546;7.002;2022-07-06T11:06:39;22.56;44.77
65652;SHT30;52350;51.546;7.002;2022-07-06T11:09:08;23.07;44.80
65652;SHT30;52350;51.546;7.002;2022-07-06T11:21:47;22.83;45.58
65652;SHT30;52350;51.546;7.002;2022-07-06T11:24:25;22.96;45.15
65652;SHT30;52350;51.546;7.002;2022-07-06T11:26:52;22.99;44.94
65652;SHT30;52350;51.546;7.002;2022-07-06T11:29:19;23.10;44.40
65652;SHT30;52350;51.546;7.002;2022-07-06T11:31:46;23.85;42.02
65652;SHT30;52350;51.546;7.002;2022-07-06T11:34:18;24.14;42.23
65652;SHT30;52350;51.546;7.002;2022-07-06T11:36:54;23.89;42.78
65652;SHT30;52350;51.546;7.002;2022-07-06T11:39:21;24.06;44.21
65652;SHT30;52350;51.546;7.002;2022-07-06T11:41:47;25.35;42.00
65652;SHT30;52350;51.546;7.002;2022-07-06T11:44:12;26.76;36.24
65652;SHT30;52350;51.546;7.002;2022-07-06T11:46:38;27.62;34.83
65652;SHT30;52350;51.546;7.002;2022-07-06T11:49:04;28.82;33.77
65652;SHT30;52350;51.546;7.002;2022-07-06T11:51:40;29.09;32.26
65652;SHT30;52350;51.546;7.002;2022-07-06T11:54:10;27.77;33.88
65652;SHT30;52350;51.546;7.002;2022-07-06T11:56:37;27.66;34.26
65652;SHT30;52350;51.546;7.002;2022-07-06T11:59:10;28.67;31.69
65652;SHT30;52350;51.546;7.002;2022-07-06T12:01:35;28.88;30.96
65652;SHT30;52350;51.546;7.002;2022-07-06T12:04:06;27.73;33.80
65652;SHT30;52350;51.546;7.002;2022-07-06T12:06:32;26.43;36.60
65652;SHT30;52350;51.546;7.002;2022-07-06T12:08:59;25.34;39.37
65652;SHT30;52350;51.546;7.002;2022-07-06T12:11:32;24.82;40.35
65652;SHT30;52350;51.546;7.002;2022-07-06T12:14:03;24.97;42.41
65652;SHT30;52350;51.546;7.002;2022-07-06T12:16:45;25.76;39.19
65652;SHT30;52350;51.546;7.002;2022-07-06T12:19:11;26.69;36.94
65652;SHT30;52350;51.546;7.002;2022-07-06T12:21:49;27.99;37.99
65652;SHT30;52350;51.546;7.002;2022-07-06T12:26:45;27.71;36.76
65652;SHT30;52350;51.546;7.002;2022-07-06T12:29:12;26.44;36.45
65652;SHT30;52350;51.546;7.002;2022-07-06T12:31:42;26.92;37.81
65652;SHT30;52350;51.546;7.002;2022-07-06T12:34:21;28.10;34.42
65652;SHT30;52350;51.546;7.002;2022-07-06T12:36:52;27.27;37.01
65652;SHT30;52350;51.546;7.002;2022-07-06T12:39:22;27.07;38.22
65652;SHT30;52350;51.546;7.002;2022-07-06T12:42:01;26.96;36.43
65652;SHT30;52350;51.546;7.002;2022-07-06T12:44:28;27.06;37.45
65652;SHT30;52350;51.546;7.002;2022-07-06T12:47:11;28.10;33.20
65652;SHT30;52350;51.546;7.002;2022-07-06T12:49:38;28.37;31.27
65652;SHT30;52350;51.546;7.002;2022-07-06T12:52:11;28.25;32.32
65652;SHT30;52350;51.546;7.002;2022-07-06T12:54:50;27.52;35.22
65652;SHT30;52350;51.546;7.002;2022-07-06T12:57:19;28.05;34.30
65652;SHT30;52350;51.546;7.002;2022-07-06T13:04:46;28.68;33.55
65652;SHT30;52350;51.546;7.002;2022-07-06T13:07:20;29.44;32.14
65652;SHT30;52350;51.546;7.002;2022-07-06T13:09:45;29.65;33.67
65652;SHT30;52350;51.546;7.002;2022-07-06T13:12:11;28.72;33.38
65652;SHT30;52350;51.546;7.002;2022-07-06T13:14:36;27.23;33.97
65652;SHT30;52350;51.546;7.002;2022-07-06T13:17:02;26.47;35.88
65652;SHT30;52350;51.546;7.002;2022-07-06T13:19:27;25.68;36.08
65652;SHT30;52350;51.546;7.002;2022-07-06T13:21:53;25.16;39.20
65652;SHT30;52350;51.546;7.002;2022-07-06T13:24:18;24.79;37.66
65652;SHT30;52350;51.546;7.002;2022-07-06T13:26:43;24.62;38.35
65652;SHT30;52350;51.546;7.002;2022-07-06T13:29:09;24.69;38.39
65652;SHT30;52350;51.546;7.002;2022-07-06T13:31:36;24.72;38.00
65652;SHT30;52350;51.546;7.002;2022-07-06T13:34:02;24.72;38.34
65652;SHT30;52350;51.546;7.002;2022-07-06T13:36:27;24.47;38.29
65652;SHT30;52350;51.546;7.002;2022-07-06T13:38:53;24.14;38.23
65652;SHT30;52350;51.546;7.002;2022-07-06T13:41:18;23.99;38.87
65652;SHT30;52350;51.546;7.002;2022-07-06T13:43:44;23.95;39.29
65652;SHT30;52350;51.546;7.002;2022-07-06T13:46:10;23.83;41.10
65652;SHT30;52350;51.546;7.002;2022-07-06T13:48:38;23.75;40.59
65652;SHT30;52350;51.546;7.002;2022-07-06T13:51:03;23.78;41.82
65652;SHT30;52350;51.546;7.002;2022-07-06T13:53:29;23.89;41.56
65652;SHT30;52350;51.546;7.002;2022-07-06T13:55:56;24.04;39.87
65652;SHT30;52350;51.546;7.002;2022-07-06T13:58:24;24.02;41.65
65652;SHT30;52350;51.546;7.002;2022-07-06T14:00:49;24.00;38.98
65652;SHT30;52350;51.546;7.002;2022-07-06T14:03:14;23.75;40.47
65652;SHT30;52350;51.546;7.002;2022-07-06T14:05:40;23.66;40.78
65652;SHT30;52350;51.546;7.002;2022-07-06T14:08:05;23.62;40.56
65652;SHT30;52350;51.546;7.002;2022-07-06T14:10:31;23.65;42.52
65652;SHT30;52350;51.546;7.002;2022-07-06T14:12:56;23.57;42.09
65652;SHT30;52350;51.546;7.002;2022-07-06T14:15:22;23.48;44.37
65652;SHT30;52350;51.546;7.002;2022-07-06T14:17:47;23.44;41.57
65652;SHT30;52350;51.546;7.002;2022-07-06T14:20:13;23.51;42.57
65652;SHT30;52350;51.546;7.002;2022-07-06T14:22:39;23.68;40.57
65652;SHT30;52350;51.546;7.002;2022-07-06T14:25:05;23.55;42.09
65652;SHT30;52350;51.546;7.002;2022-07-06T14:27:32;23.63;40.44
65652;SHT30;52350;51.546;7.002;2022-07-06T14:29:58;23.57;41.82
65652;SHT30;52350;51.546;7.002;2022-07-06T14:32:23;23.62;40.72
65652;SHT30;52350;51.546;7.002;2022-07-06T14:34:49;23.50;40.93
65652;SHT30;52350;51.546;7.002;2022-07-06T14:37:14;23.48;40.56
65652;SHT30;52350;51.546;7.002;2022-07-06T14:39:40;23.38;42.19
65652;SHT30;52350;51.546;7.002;2022-07-06T14:42:05;23.33;41.09
65652;SHT30;52350;51.546;7.002;2022-07-06T14:44:31;23.31;40.90
65652;SHT30;52350;51.546;7.002;2022-07-06T14:46:56;23.30;40.66
65652;SHT30;52350;51.546;7.002;2022-07-06T14:49:22;23.21;43.04
65652;SHT30;52350;51.546;7.002;2022-07-06T14:51:47;23.30;41.59
65652;SHT30;52350;51.546;7.002;2022-07-06T14:54:14;23.21;40.62
65652;SHT30;52350;51.546;7.002;2022-07-06T14:56:40;23.07;40.99
65652;SHT30;52350;51.546;7.002;2022-07-06T14:59:06;23.07;41.40
65652;SHT30;52350;51.546;7.002;2022-07-06T15:01:31;23.06;40.62
65652;SHT30;52350;51.546;7.002;2022-07-06T15:03:57;22.90;43.49
65652;SHT30;52350;51.546;7.002;2022-07-06T15:06:22;22.93;42.04
65652;SHT30;52350;51.546;7.002;2022-07-06T15:08:48;22.96;44.08
65652;SHT30;52350;51.546;7.002;2022-07-06T15:11:13;22.96;42.03
65652;SHT30;52350;51.546;7.002;2022-07-06T15:13:38;23.25;40.28
65652;SHT30;52350;51.546;7.002;2022-07-06T15:16:04;23.14;41.06
65652;SHT30;52350;51.546;7.002;2022-07-06T15:18:30;23.10;41.46
65652;SHT30;52350;51.546;7.002;2022-07-06T15:20:55;23.06;42.42
65652;SHT30;52350;51.546;7.002;2022-07-06T15:23:21;22.99;43.52
65652;SHT30;52350;51.546;7.002;2022-07-06T15:25:47;23.03;43.48
65652;SHT30;52350;51.546;7.002;2022-07-06T15:28:12;23.00;42.78
65652;SHT30;52350;51.546;7.002;2022-07-06T15:30:38;22.93;42.23
65652;SHT30;52350;51.546;7.002;2022-07-06T15:33:04;22.96;42.42
65652;SHT30;52350;51.546;7.002;2022-07-06T15:35:29;22.89;42.92
65652;SHT30;52350;51.546;7.002;2022-07-06T15:37:55;22.90;42.72
65652;SHT30;52350;51.546;7.002;2022-07-06T15:40:20;22.80;43.49
65652;SHT30;52350;51.546;7.002;2022-07-06T15:42:49;22.75;43.71
65652;SHT30;52350;51.546;7.002;2022-07-06T15:45:21;22.71;43.25
65652;SHT30;52350;51.546;7.002;2022-07-06T15:47:50;22.63;43.56
65652;SHT30;52350;51.546;7.002;2022-07-06T15:50:16;22.56;43.86